createdAt,value
2023-01-17T00:02:07.201Z,74.67
2023-01-17T00:04:53.107Z,74.86
2023-01-17T00:07:40.524Z,74.52
2023-01-17T00:10:16.867Z,74.37
2023-01-17T00:13:03.552Z,74.38
2023-01-17T00:15:31.901Z,74.81
2023-01-17T00:17:59.573Z,75.02
2023-01-17T00:20:48.709Z,75.18
2023-01-17T00:23:40.414Z,75.17
2023-01-17T00:26:12.969Z,74.88
2023-01-17T00:28:41.572Z,75.18
2023-01-17T00:31:11.385Z,74.55
2023-01-17T00:33:39.113Z,74.44
2023-01-17T00:36:07.480Z,74.83
2023-01-17T00:38:37.459Z,75.21
2023-01-17T00:41:13.479Z,74.93
2023-01-17T00:43:59.382Z,75.20
2023-01-17T00:46:45.188Z,74.82
2023-01-17T00:49:30.754Z,74.79
2023-01-17T00:52:16.443Z,74.53
2023-01-17T00:55:02.204Z,74.16
2023-01-17T00:57:49.130Z,74.52
2023-01-17T01:00:37.593Z,73.87
2023-01-17T01:03:30.154Z,73.77
2023-01-17T01:06:16.095Z,73.56
2023-01-17T01:09:01.606Z,73.92
2023-01-17T01:11:47.185Z,73.64
2023-01-17T01:14:32.890Z,73.48
2023-01-17T01:17:18.681Z,72.72
2023-01-17T01:20:04.386Z,73.20
2023-01-17T01:22:49.968Z,72.89
2023-01-17T01:25:35.619Z,73.52
2023-01-17T01:28:26.586Z,73.90
2023-01-17T01:31:12.223Z,74.17
2023-01-17T01:33:39.211Z,73.69
2023-01-17T01:36:09.136Z,73.90
2023-01-17T01:38:36.443Z,73.60
2023-01-17T01:41:04.133Z,73.74
2023-01-17T01:43:54.520Z,73.90
2023-01-17T01:46:33.251Z,73.51
2023-01-17T01:49:08.569Z,73.75
2023-01-17T01:51:41.590Z,73.64
2023-01-17T01:54:15.665Z,73.63
2023-01-17T01:56:44.248Z,74.03
2023-01-17T01:59:15.679Z,73.30
2023-01-17T02:01:42.913Z,72.84
2023-01-17T02:04:11.013Z,73.19
2023-01-17T02:06:42.169Z,73.55
2023-01-17T02:09:11.895Z,73.73
2023-01-17T02:11:40.913Z,73.06
2023-01-17T02:14:09.024Z,72.88
2023-01-17T02:16:58.094Z,72.97
2023-01-17T02:19:57.109Z,72.88
2023-01-17T02:22:26.990Z,73.11
2023-01-17T02:24:53.940Z,73.22
2023-01-17T02:27:42.148Z,73.26
2023-01-17T02:30:24.248Z,73.43
2023-01-17T02:33:26.390Z,72.58
2023-01-17T02:36:10.273Z,74.51
2023-01-17T02:39:12.715Z,73.12
2023-01-17T02:41:43.816Z,71.96
2023-01-17T02:44:15.864Z,72.10
2023-01-17T02:46:49.607Z,71.72
2023-01-17T02:49:18.830Z,72.00
2023-01-17T02:52:20.829Z,71.77
2023-01-17T02:55:18.625Z,71.89
2023-01-17T02:58:03.909Z,71.52
2023-01-17T03:00:49.401Z,71.26
2023-01-17T03:03:23.348Z,71.42
2023-01-17T03:06:11.704Z,71.65
2023-01-17T03:08:41.284Z,72.00
2023-01-17T03:11:12.571Z,71.62
2023-01-17T03:13:39.882Z,71.15
2023-01-17T03:16:12.883Z,71.70
2023-01-17T03:18:39.889Z,71.26
2023-01-17T03:21:06.853Z,71.15
2023-01-17T03:23:33.808Z,71.36
2023-01-17T03:26:00.745Z,71.17
2023-01-17T03:28:27.839Z,71.47
2023-01-17T03:30:54.916Z,71.31
2023-01-17T03:33:21.922Z,71.46
2023-01-17T03:35:48.944Z,71.37
2023-01-17T03:38:15.925Z,71.40
2023-01-17T03:40:42.866Z,71.45
2023-01-17T03:43:09.917Z,71.69
2023-01-17T03:45:36.926Z,71.98
2023-01-17T03:48:04.059Z,72.16
2023-01-17T03:50:31.021Z,71.88
2023-01-17T03:52:58.032Z,72.20
2023-01-17T03:55:24.983Z,72.01
2023-01-17T03:57:52.045Z,72.12
2023-01-17T04:00:19.278Z,71.74
2023-01-17T04:02:46.381Z,71.80
2023-01-17T04:05:13.451Z,71.96
2023-01-17T04:07:41.209Z,72.19
2023-01-17T04:10:08.668Z,72.60
2023-01-17T04:12:35.770Z,72.57
2023-01-17T04:15:02.863Z,73.04
2023-01-17T04:17:31.077Z,72.59
2023-01-17T04:19:58.144Z,72.46
2023-01-17T04:22:25.263Z,72.42
2023-01-17T04:24:52.235Z,71.79
2023-01-17T04:27:19.269Z,72.31
2023-01-17T04:29:46.877Z,72.02
2023-01-17T04:32:14.879Z,72.12
2023-01-17T04:34:42.155Z,71.64
2023-01-17T04:37:09.209Z,71.70
2023-01-17T04:39:36.273Z,71.13
2023-01-17T04:42:03.246Z,71.50
2023-01-17T04:44:30.268Z,72.01
2023-01-17T04:46:57.261Z,71.57
2023-01-17T04:49:24.308Z,71.32
2023-01-17T04:51:52.667Z,71.49
2023-01-17T04:54:19.671Z,71.46
2023-01-17T04:56:46.715Z,71.77
2023-01-17T04:59:13.776Z,72.58
2023-01-17T05:01:40.878Z,72.29
2023-01-17T05:04:07.950Z,72.44
2023-01-17T05:06:34.933Z,71.85
2023-01-17T05:09:03.008Z,71.50
2023-01-17T05:11:30.020Z,71.55
2023-01-17T05:13:57.018Z,71.89
2023-01-17T05:16:24.213Z,71.85
2023-01-17T05:18:53.041Z,72.03
2023-01-17T05:21:21.180Z,72.04
2023-01-17T05:23:48.589Z,72.54
2023-01-17T05:26:15.633Z,72.24
2023-01-17T05:28:42.703Z,72.26
2023-01-17T05:31:09.850Z,72.39
2023-01-17T05:33:37.071Z,72.14
2023-01-17T05:36:04.371Z,72.71
2023-01-17T05:38:31.412Z,72.78
2023-01-17T05:41:02.329Z,72.16
2023-01-17T05:43:29.461Z,72.22
2023-01-17T05:45:56.561Z,72.68
2023-01-17T05:48:23.682Z,72.41
2023-01-17T05:50:52.403Z,72.70
2023-01-17T05:53:19.483Z,72.47
2023-01-17T05:55:47.833Z,72.55
2023-01-17T05:58:18.184Z,72.72
2023-01-17T06:00:45.814Z,72.45
2023-01-17T06:03:13.276Z,72.51
2023-01-17T06:05:40.891Z,72.38
2023-01-17T06:08:08.370Z,72.37
2023-01-17T06:10:35.338Z,72.71
2023-01-17T06:13:08.352Z,73.17
2023-01-17T06:15:37.010Z,73.69
2023-01-17T06:18:15.646Z,73.32
2023-01-17T06:20:43.521Z,73.25
2023-01-17T06:23:13.320Z,73.56
2023-01-17T06:25:45.668Z,73.61
2023-01-17T06:28:14.978Z,74.01
2023-01-17T06:30:42.593Z,73.76
2023-01-17T06:33:10.511Z,74.10
2023-01-17T06:35:44.454Z,74.34
2023-01-17T06:38:11.439Z,74.19
2023-01-17T06:40:38.475Z,73.73
2023-01-17T06:43:05.967Z,73.74
2023-01-17T06:45:35.324Z,73.88
2023-01-17T06:48:04.273Z,73.69
2023-01-17T06:50:33.621Z,74.14
2023-01-17T06:53:07.029Z,73.88
2023-01-17T06:55:35.267Z,73.63
2023-01-17T06:58:03.257Z,73.96
2023-01-17T07:00:31.651Z,73.95
2023-01-17T07:02:58.653Z,73.83
2023-01-17T07:05:25.921Z,73.89
2023-01-17T07:07:53.719Z,73.56
2023-01-17T07:10:21.310Z,73.22
2023-01-17T07:12:48.380Z,73.31
2023-01-17T07:15:15.514Z,73.37
2023-01-17T07:17:42.520Z,73.45
2023-01-17T07:20:10.101Z,73.14
2023-01-17T07:22:37.891Z,73.23
2023-01-17T07:25:05.582Z,72.65
2023-01-17T07:27:33.722Z,72.76
2023-01-17T07:30:01.357Z,73.29
2023-01-17T07:32:28.763Z,72.63
2023-01-17T07:34:58.132Z,73.04
2023-01-17T07:37:26.577Z,73.47
2023-01-17T07:39:54.673Z,73.20
2023-01-17T07:42:23.959Z,73.87
2023-01-17T07:44:51.386Z,73.59
2023-01-17T07:47:18.313Z,73.58
2023-01-17T07:49:45.511Z,73.34
2023-01-17T07:52:12.492Z,73.30
2023-01-17T07:54:39.417Z,73.32
2023-01-17T07:57:11.207Z,72.65
2023-01-17T07:59:38.158Z,72.66
2023-01-17T08:02:05.289Z,72.32
2023-01-17T08:04:35.358Z,72.56
2023-01-17T08:07:02.631Z,72.66
2023-01-17T08:09:29.839Z,73.14
2023-01-17T08:11:56.826Z,73.14
2023-01-17T08:14:23.899Z,73.54
2023-01-17T08:16:50.944Z,73.68
2023-01-17T08:19:18.075Z,73.93
2023-01-17T08:21:45.181Z,74.59
2023-01-17T08:24:13.957Z,74.68
2023-01-17T08:26:40.998Z,74.95
2023-01-17T08:29:09.010Z,75.40
2023-01-17T08:31:36.778Z,75.06
2023-01-17T08:34:04.087Z,75.06
2023-01-17T08:36:31.452Z,74.61
2023-01-17T08:38:58.705Z,75.22
2023-01-17T08:41:28.021Z,74.98
2023-01-17T08:43:55.065Z,75.22
2023-01-17T08:46:22.617Z,74.98
2023-01-17T08:48:54.301Z,74.91
2023-01-17T08:51:21.786Z,74.65
2023-01-17T08:53:48.801Z,74.87
2023-01-17T08:56:15.947Z,74.89
2023-01-17T08:58:43.028Z,75.01
2023-01-17T09:01:10.196Z,74.92
2023-01-17T09:03:39.479Z,74.13
2023-01-17T09:06:13.917Z,75.05
2023-01-17T09:08:41.303Z,74.71
2023-01-17T09:11:13.079Z,74.72
2023-01-17T09:13:40.556Z,74.98
2023-01-17T09:16:08.381Z,74.93
2023-01-17T09:18:36.378Z,74.88
2023-01-17T09:21:14.826Z,74.93
2023-01-17T09:23:42.383Z,74.32
2023-01-17T09:26:34.564Z,74.42
2023-01-17T09:29:01.608Z,74.72
2023-01-17T09:31:29.047Z,74.31
2023-01-17T09:33:57.916Z,73.78
2023-01-17T09:36:28.942Z,77.33
2023-01-17T09:38:57.875Z,76.40
2023-01-17T09:41:30.134Z,75.83
2023-01-17T09:44:01.879Z,75.19
2023-01-17T09:46:32.614Z,74.66
2023-01-17T09:49:41.878Z,74.57
2023-01-17T09:52:13.685Z,73.77
2023-01-17T09:54:43.361Z,74.20
2023-01-17T09:57:47.008Z,74.09
2023-01-17T10:00:35.257Z,74.62
2023-01-17T10:03:28.363Z,74.27
2023-01-17T10:06:28.695Z,74.47
2023-01-17T10:09:13.658Z,74.71
2023-01-17T10:12:07.440Z,74.74
2023-01-17T10:14:34.482Z,74.65
2023-01-17T10:17:07.064Z,74.99
2023-01-17T10:19:55.167Z,75.37
2023-01-17T10:22:37.404Z,75.09
2023-01-17T10:25:36.442Z,74.79
2023-01-17T10:28:12.408Z,74.96
2023-01-17T10:30:49.038Z,74.81
2023-01-17T10:33:21.561Z,75.05
2023-01-17T10:35:57.269Z,75.07
2023-01-17T10:38:30.277Z,74.71
2023-01-17T10:41:03.363Z,74.80
2023-01-17T10:43:37.643Z,74.42
2023-01-17T10:46:05.311Z,74.93
2023-01-17T10:48:41.823Z,74.50
2023-01-17T10:51:11.117Z,74.71
2023-01-17T10:53:56.416Z,74.72
2023-01-17T10:56:28.192Z,74.15
2023-01-17T10:59:18.720Z,73.28
2023-01-17T11:01:46.201Z,73.94
2023-01-17T11:04:25.077Z,74.13
2023-01-17T11:07:12.643Z,73.67
2023-01-17T11:09:42.587Z,73.91
2023-01-17T11:12:44.375Z,73.60
2023-01-17T11:15:11.295Z,74.00
2023-01-17T11:17:53.555Z,74.07
2023-01-17T11:20:32.907Z,73.83
2023-01-17T11:23:14.846Z,73.86
2023-01-17T11:25:58.174Z,73.68
2023-01-17T11:28:30.830Z,73.33
2023-01-17T11:31:26.087Z,73.24
2023-01-17T11:34:13.409Z,73.20
2023-01-17T11:36:40.658Z,73.57
2023-01-17T11:39:27.712Z,72.82
2023-01-17T11:41:54.916Z,73.36
2023-01-17T11:44:31.829Z,73.45
2023-01-17T11:47:13.802Z,73.11
2023-01-17T11:49:42.608Z,73.12
2023-01-17T11:52:11.660Z,72.87
2023-01-17T11:54:40.599Z,72.47
2023-01-17T11:57:28.305Z,72.65
2023-01-17T12:00:24.976Z,72.95
2023-01-17T12:03:11.001Z,72.92
2023-01-17T12:05:53.760Z,72.70
2023-01-17T12:08:44.603Z,72.34
2023-01-17T12:11:23.576Z,72.31
2023-01-17T12:14:02.343Z,72.34
2023-01-17T12:16:35.316Z,71.82
2023-01-17T12:19:05.286Z,72.11
2023-01-17T12:21:50.929Z,71.88
2023-01-17T12:24:41.686Z,72.52
2023-01-17T12:27:20.837Z,72.56
2023-01-17T12:30:22.697Z,72.82
2023-01-17T12:33:06.907Z,72.97
2023-01-17T12:35:46.252Z,72.36
2023-01-17T12:38:31.733Z,72.31
2023-01-17T12:41:24.434Z,72.24
2023-01-17T12:43:56.610Z,71.98
2023-01-17T12:46:33.735Z,71.87
2023-01-17T12:49:43.722Z,71.80
2023-01-17T12:52:52.509Z,71.74
2023-01-17T12:55:55.574Z,71.44
2023-01-17T12:58:25.981Z,71.85
2023-01-17T13:01:28.534Z,71.09
2023-01-17T13:04:21.376Z,71.44
2023-01-17T13:07:03.372Z,71.53
2023-01-17T13:09:39.747Z,71.09
2023-01-17T13:12:14.224Z,71.32
2023-01-17T13:14:41.447Z,70.72
2023-01-17T13:17:57.777Z,70.77
2023-01-17T13:20:33.473Z,70.67
2023-01-17T13:23:33.777Z,70.62
2023-01-17T13:26:03.409Z,70.32
2023-01-17T13:28:47.130Z,70.48
2023-01-17T13:31:48.391Z,70.20
2023-01-17T13:34:45.978Z,70.32
2023-01-17T13:37:42.458Z,70.39
2023-01-17T13:40:29.682Z,70.16
2023-01-17T13:43:00.893Z,69.82
2023-01-17T13:45:31.236Z,69.58
2023-01-17T13:48:14.778Z,69.76
2023-01-17T13:50:41.855Z,69.60
2023-01-17T13:53:39.564Z,70.29
2023-01-17T13:56:18.887Z,69.70
2023-01-17T13:58:50.390Z,69.98
2023-01-17T14:01:24.656Z,69.77
2023-01-17T14:03:54.454Z,69.86
2023-01-17T14:06:40.801Z,69.95
2023-01-17T14:09:17.064Z,69.83
2023-01-17T14:11:58.684Z,69.78
2023-01-17T14:14:56.765Z,69.81
2023-01-17T14:17:25.706Z,69.31
2023-01-17T14:19:53.741Z,69.35
2023-01-17T14:22:20.848Z,69.39
2023-01-17T14:25:12.297Z,69.23
2023-01-17T14:27:42.626Z,68.79
2023-01-17T14:30:27.630Z,68.94
2023-01-17T14:33:08.881Z,68.77
2023-01-17T14:35:37.637Z,68.79
2023-01-17T14:38:18.672Z,68.72
2023-01-17T14:40:54.111Z,68.75
2023-01-17T14:43:24.074Z,68.65
2023-01-17T14:46:05.757Z,68.41
2023-01-17T14:48:40.520Z,68.49
2023-01-17T14:51:20.428Z,68.97
2023-01-17T14:53:59.427Z,68.79
2023-01-17T14:56:28.876Z,68.75
2023-01-17T14:59:17.395Z,69.06
2023-01-17T15:02:06.163Z,68.92
2023-01-17T15:04:39.899Z,68.81
2023-01-17T15:07:18.992Z,68.93
2023-01-17T15:09:47.386Z,69.22
2023-01-17T15:12:14.946Z,69.13
2023-01-17T15:14:45.998Z,69.08
2023-01-17T15:17:24.684Z,68.98
2023-01-17T15:20:06.626Z,69.15
2023-01-17T15:22:36.849Z,69.26
2023-01-17T15:25:05.331Z,69.06
2023-01-17T15:27:32.908Z,69.01
2023-01-17T15:30:02.894Z,68.50
2023-01-17T15:32:31.937Z,68.36
2023-01-17T15:35:02.645Z,68.39
2023-01-17T15:37:34.838Z,68.45
2023-01-17T15:40:20.355Z,68.00
2023-01-17T15:43:01.200Z,68.16
2023-01-17T15:45:31.809Z,68.29
2023-01-17T15:48:38.704Z,68.52
2023-01-17T15:51:06.009Z,68.37
2023-01-17T15:53:36.888Z,68.06
2023-01-17T15:56:22.303Z,67.99
2023-01-17T15:58:50.536Z,67.76
2023-01-17T16:01:25.775Z,67.95
2023-01-17T16:03:56.404Z,67.64
2023-01-17T16:06:45.987Z,67.81
2023-01-17T16:09:25.086Z,67.42
2023-01-17T16:11:52.557Z,67.32
2023-01-17T16:14:20.109Z,67.49
2023-01-17T16:16:54.738Z,67.57
2023-01-17T16:19:25.330Z,67.66
2023-01-17T16:21:52.538Z,67.86
2023-01-17T16:24:20.190Z,68.01
2023-01-17T16:26:51.850Z,67.89
2023-01-17T16:29:19.275Z,67.95
2023-01-17T16:31:46.698Z,68.17
2023-01-17T16:34:14.218Z,68.60
2023-01-17T16:36:41.887Z,69.12
2023-01-17T16:39:14.619Z,69.17
2023-01-17T16:41:41.859Z,69.17
2023-01-17T16:44:10.183Z,69.02
2023-01-17T16:46:38.747Z,68.77
2023-01-17T16:49:06.583Z,69.33
2023-01-17T16:51:34.804Z,69.58
2023-01-17T16:54:02.225Z,69.57
2023-01-17T16:56:29.942Z,69.74
2023-01-17T16:58:57.687Z,70.14
2023-01-17T17:01:25.508Z,69.40
2023-01-17T17:03:55.682Z,69.46
2023-01-17T17:06:23.287Z,69.67
2023-01-17T17:08:50.736Z,69.94
2023-01-17T17:11:21.160Z,69.67
2023-01-17T17:13:50.204Z,69.74
2023-01-17T17:16:26.609Z,69.87
2023-01-17T17:18:57.088Z,69.92
2023-01-17T17:21:26.171Z,69.72
2023-01-17T17:23:58.385Z,69.97
2023-01-17T17:26:27.603Z,70.38
2023-01-17T17:28:55.033Z,70.54
2023-01-17T17:31:25.481Z,70.00
2023-01-17T17:33:53.035Z,70.61
2023-01-17T17:36:20.070Z,70.59
2023-01-17T17:38:53.977Z,70.80
2023-01-17T17:41:27.747Z,70.75
2023-01-17T17:43:55.970Z,70.90
2023-01-17T17:46:25.343Z,71.25
2023-01-17T17:48:52.591Z,71.54
2023-01-17T17:51:40.383Z,71.29
2023-01-17T17:54:10.356Z,70.99
2023-01-17T17:56:39.603Z,71.07
2023-01-17T17:59:09.272Z,70.24
2023-01-17T18:01:41.059Z,70.23
2023-01-17T18:04:08.912Z,70.69
2023-01-17T18:06:36.408Z,70.57
2023-01-17T18:09:04.514Z,70.77
2023-01-17T18:11:32.117Z,71.19
2023-01-17T18:14:01.787Z,71.02
2023-01-17T18:16:35.652Z,70.77
2023-01-17T18:19:04.238Z,71.17
2023-01-17T18:21:33.971Z,71.22
2023-01-17T18:24:03.803Z,71.36
2023-01-17T18:26:32.275Z,71.48
2023-01-17T18:29:00.380Z,71.09
2023-01-17T18:31:29.450Z,70.48
2023-01-17T18:33:59.237Z,70.18
2023-01-17T18:36:29.018Z,70.36
2023-01-17T18:38:56.923Z,70.66
2023-01-17T18:41:27.064Z,70.80
2023-01-17T18:43:56.201Z,70.77
2023-01-17T18:46:26.065Z,70.89
2023-01-17T18:48:57.074Z,70.94
2023-01-17T18:51:24.875Z,70.63
2023-01-17T18:53:55.148Z,70.54
2023-01-17T18:56:24.050Z,70.81
2023-01-17T18:58:51.392Z,70.81
2023-01-17T19:01:24.872Z,70.60
2023-01-17T19:03:54.834Z,70.21
2023-01-17T19:06:25.745Z,70.22
2023-01-17T19:08:53.205Z,70.57
2023-01-17T19:11:22.676Z,70.31
2023-01-17T19:13:50.885Z,70.82
2023-01-17T19:16:28.228Z,71.77
2023-01-17T19:18:58.177Z,71.57
2023-01-17T19:21:27.709Z,71.76
2023-01-17T19:23:56.910Z,71.68
2023-01-17T19:26:27.644Z,71.74
2023-01-17T19:28:56.919Z,71.76
2023-01-17T19:31:26.811Z,71.26
2023-01-17T19:33:57.586Z,70.96
2023-01-17T19:36:28.384Z,70.97
2023-01-17T19:39:04.506Z,70.94
2023-01-17T19:41:34.531Z,71.08
2023-01-17T19:44:04.295Z,70.91
2023-01-17T19:46:32.783Z,71.03
2023-01-17T19:49:00.704Z,71.59
2023-01-17T19:51:28.279Z,71.13
2023-01-17T19:53:56.208Z,71.24
2023-01-17T19:56:25.360Z,71.02
2023-01-17T19:58:52.513Z,71.41
2023-01-17T20:01:19.701Z,71.07
2023-01-17T20:03:47.339Z,71.12
2023-01-17T20:06:17.725Z,71.68
2023-01-17T20:08:45.396Z,72.20
2023-01-17T20:11:21.543Z,72.17
2023-01-17T20:13:51.601Z,72.24
2023-01-17T20:16:19.559Z,71.61
2023-01-17T20:18:46.695Z,72.09
2023-01-17T20:21:17.452Z,71.72
2023-01-17T20:23:47.125Z,71.72
2023-01-17T20:26:15.855Z,71.77
2023-01-17T20:28:46.189Z,71.49
2023-01-17T20:31:16.154Z,71.99
2023-01-17T20:33:44.787Z,71.46
2023-01-17T20:36:15.055Z,71.49
2023-01-17T20:38:46.400Z,71.81
2023-01-17T20:41:24.521Z,71.31
2023-01-17T20:43:57.058Z,71.96
2023-01-17T20:46:26.913Z,71.39
2023-01-17T20:48:56.063Z,71.57
2023-01-17T20:51:25.504Z,71.31
2023-01-17T20:53:56.097Z,71.43
2023-01-17T20:56:24.004Z,71.38
2023-01-17T20:58:52.466Z,72.13
2023-01-17T21:01:21.359Z,71.69
2023-01-17T21:03:51.743Z,71.53
2023-01-17T21:06:20.913Z,72.11
2023-01-17T21:08:48.539Z,71.65
2023-01-17T21:11:20.941Z,71.37
2023-01-17T21:13:51.592Z,71.49
2023-01-17T21:16:21.361Z,71.20
2023-01-17T21:18:50.116Z,71.25
2023-01-17T21:21:24.470Z,71.77
2023-01-17T21:23:53.672Z,72.55
2023-01-17T21:26:22.541Z,72.56
2023-01-17T21:28:50.983Z,73.34
2023-01-17T21:31:26.518Z,74.09
2023-01-17T21:33:59.248Z,74.67
2023-01-17T21:36:29.502Z,74.32
2023-01-17T21:38:58.906Z,74.34
2023-01-17T21:41:29.308Z,74.17
2023-01-17T21:43:58.842Z,73.75
2023-01-17T21:46:27.144Z,73.96
2023-01-17T21:48:54.210Z,73.57
2023-01-17T21:51:21.954Z,73.04
2023-01-17T21:53:49.052Z,73.49
2023-01-17T21:56:35.107Z,72.97
2023-01-17T21:59:02.276Z,72.79
2023-01-17T22:01:32.652Z,73.12
2023-01-17T22:04:02.846Z,72.58
2023-01-17T22:06:32.918Z,72.80
2023-01-17T22:09:00.240Z,72.82
2023-01-17T22:11:30.097Z,72.60
2023-01-17T22:13:59.250Z,73.00
2023-01-17T22:16:26.574Z,72.54
2023-01-17T22:18:53.744Z,72.39
2023-01-17T22:21:23.300Z,72.89
2023-01-17T22:23:52.277Z,72.58
2023-01-17T22:26:21.416Z,72.55
2023-01-17T22:28:48.435Z,72.59
2023-01-17T22:31:24.754Z,72.77
2023-01-17T22:34:03.625Z,72.53
2023-01-17T22:36:34.707Z,72.75
2023-01-17T22:39:02.274Z,72.81
2023-01-17T22:41:31.324Z,72.94
2023-01-17T22:44:02.140Z,73.01
2023-01-17T22:46:31.669Z,72.91
2023-01-17T22:48:59.368Z,73.08
2023-01-17T22:51:28.459Z,73.32
2023-01-17T22:53:57.831Z,73.40
2023-01-17T22:56:32.981Z,73.46
2023-01-17T22:59:01.146Z,73.13
2023-01-17T23:01:30.925Z,73.07
2023-01-17T23:03:59.873Z,73.52
2023-01-17T23:06:38.711Z,73.35
2023-01-17T23:09:11.649Z,73.49
2023-01-17T23:11:47.497Z,73.34
2023-01-17T23:14:14.448Z,73.55
2023-01-17T23:17:08.500Z,73.74
2023-01-17T23:19:42.601Z,73.83
2023-01-17T23:22:15.952Z,73.48
2023-01-17T23:25:01.087Z,73.65
2023-01-17T23:27:58.207Z,73.80
2023-01-17T23:30:29.847Z,73.89
2023-01-17T23:32:59.926Z,73.83
2023-01-17T23:35:30.021Z,73.46
2023-01-17T23:38:15.998Z,73.69
2023-01-17T23:40:43.929Z,73.40
2023-01-17T23:43:23.872Z,73.15
2023-01-17T23:45:52.614Z,73.23
2023-01-17T23:48:20.754Z,73.67
2023-01-17T23:50:48.706Z,73.83
2023-01-17T23:53:23.768Z,73.45
2023-01-17T23:55:56.899Z,73.49
2023-01-17T23:58:26.897Z,73.47
